Terminal Aerodrome Forecast
Issued by NWS Omaha/Valley, NE

Home | Current Version | Previous Version | Text Only | Print | Product List | Glossary Off
Versions: 1 2 3 4 5 6 7 8 9 10 11 12 13 14 15 16 17 18 19 20 21 22 23 24 25 26 27 28 29 30 31 32 33 34 35 36 37 38 39 40 41 42 43 44 45

000
FTUS43 KOAX 081720
TAFOFK
TAF
KOFK 081720Z 0818/0918 32027G37KT P6SM SCT025 BKN040
      TEMPO 0818/0821 BKN025
     FM082200 33023G32KT P6SM SCT030 BKN200
     FM090200 33016G24KT P6SM BKN150
     FM091000 33014G21KT P6SM SCT100 SCT250=

USA.gov is the U.S. government's official web portal to all federal, state and local government web resources and services.